Time;durP1;ratioP1;P1;durP2;ratioP2;P2;SDS_P1;SDS_P2;PMS_P1;PMS_P2;Temp;Humidity;BMP_temperature;BMP_pressure;BME280_temperature;BME280_humidity;BME280_pressure;Samples;Min_cycle;Max_cycle;Signal;HPM_P1;HPM_P2
2022/08/07 00:00:49;;;;;;;12.02;5.93;;;;;;;;;;5090237;28;20016;-72
2022/08/07 00:03:15;;;;;;;11.52;5.90;;;;;;;;;;5086254;28;20130;-72
2022/08/07 00:05:41;;;;;;;8.80;5.30;;;;;;;;;;5070398;28;20399;-72
2022/08/07 00:08:07;;;;;;;9.50;5.35;;;;;;;;;;5087087;28;20051;-73
2022/08/07 00:10:33;;;;;;;11.20;6.82;;;;;;;;;;5090675;28;20753;-74
2022/08/07 00:13:00;;;;;;;11.15;5.72;;;;;;;;;;5091632;28;20032;-74
2022/08/07 00:15:27;;;;;;;11.02;6.05;;;;;;;;;;5091601;28;20054;-73
2022/08/07 00:17:53;;;;;;;9.00;6.22;;;;;;;;;;5088279;28;20028;-74
2022/08/07 00:20:19;;;;;;;12.02;6.03;;;;;;;;;;5072919;28;20035;-74
2022/08/07 00:22:45;;;;;;;10.65;6.60;;;;;;;;;;5088738;28;20053;-74
2022/08/07 00:25:11;;;;;;;9.02;6.25;;;;;;;;;;5092850;28;20027;-74
2022/08/07 00:27:37;;;;;;;11.63;6.57;;;;;;;;;;5093465;28;20111;-74
2022/08/07 00:30:04;;;;;;;10.13;6.43;;;;;;;;;;5073847;28;20028;-74
2022/08/07 00:32:30;;;;;;;15.32;7.68;;;;;;;;;;5072330;28;20043;-74
2022/08/07 00:34:56;;;;;;;14.07;6.50;;;;;;;;;;5072009;28;20040;-74
2022/08/07 00:37:23;;;;;;;10.32;6.68;;;;;;;;;;5093164;28;20529;-74
2022/08/07 00:39:52;;;;;;;11.38;6.43;;;;;;;;;;5092112;28;20374;-73
2022/08/07 00:42:19;;;;;;;12.15;7.00;;;;;;;;;;5055578;28;20024;-74
2022/08/07 00:44:45;;;;;;;12.02;7.05;;;;;;;;;;5092301;28;20016;-73
2022/08/07 00:47:12;;;;;;;13.73;6.80;;;;;;;;;;5086562;28;20778;-73
2022/08/07 00:49:38;;;;;;;12.90;7.15;;;;;;;;;;5055873;28;20032;-72
2022/08/07 00:52:08;;;;;;;11.85;6.93;;;;;;;;;;5091049;28;20500;-76
2022/08/07 00:54:34;;;;;;;15.02;7.50;;;;;;;;;;5087624;28;20107;-76
2022/08/07 00:57:00;;;;;;;11.07;6.32;;;;;;;;;;5088737;28;20387;-76
2022/08/07 00:59:26;;;;;;;16.27;7.32;;;;;;;;;;5074468;28;20071;-75
2022/08/07 01:01:52;;;;;;;12.10;6.18;;;;;;;;;;5088825;28;20525;-76
2022/08/07 01:04:19;;;;;;;12.40;6.78;;;;;;;;;;5087571;28;20028;-76
2022/08/07 01:06:45;;;;;;;11.27;6.18;;;;;;;;;;5070802;28;20078;-73
2022/08/07 01:09:11;;;;;;;11.57;6.22;;;;;;;;;;5086809;28;20435;-72
2022/08/07 01:11:38;;;;;;;15.88;6.05;;;;;;;;;;5069698;28;20032;-73
2022/08/07 01:14:04;;;;;;;10.23;6.70;;;;;;;;;;5072822;28;20051;-73
2022/08/07 01:16:30;;;;;;;11.32;6.50;;;;;;;;;;5072140;28;20028;-72
2022/08/07 01:18:58;;;;;;;14.32;6.10;;;;;;;;;;5071692;28;20508;-72
2022/08/07 01:21:25;;;;;;;12.40;5.63;;;;;;;;;;5061863;28;20032;-72
2022/08/07 01:23:54;;;;;;;8.15;5.78;;;;;;;;;;5084113;28;20035;-72
2022/08/07 01:26:22;;;;;;;9.48;6.03;;;;;;;;;;5073567;28;20119;-73
2022/08/07 01:28:49;;;;;;;12.40;6.78;;;;;;;;;;5091369;28;20043;-73
2022/08/07 01:31:20;;;;;;;11.15;5.97;;;;;;;;;;5070201;28;20027;-73
2022/08/07 01:33:49;;;;;;;11.00;6.35;;;;;;;;;;5071908;28;20066;-73
2022/08/07 01:36:15;;;;;;;13.40;6.05;;;;;;;;;;5072992;28;20047;-73
2022/08/07 01:38:43;;;;;;;9.70;5.97;;;;;;;;;;5065062;28;20078;-73
2022/08/07 01:41:21;;;;;;;9.68;5.93;;;;;;;;;;5071714;28;20043;-75
2022/08/07 01:43:49;;;;;;;9.10;6.03;;;;;;;;;;5072829;28;20526;-74
2022/08/07 01:46:15;;;;;;;10.57;6.13;;;;;;;;;;5082330;28;20066;-74
2022/08/07 01:48:47;;;;;;;16.40;7.38;;;;;;;;;;5068762;28;20020;-74
2022/08/07 01:51:18;;;;;;;9.40;6.22;;;;;;;;;;5074239;28;20024;-74
2022/08/07 01:53:47;;;;;;;11.90;5.85;;;;;;;;;;5072887;28;20559;-74
2022/08/07 01:56:25;;;;;;;11.45;6.88;;;;;;;;;;5070974;28;20458;-72
2022/08/07 01:59:04;;;;;;;11.93;6.07;;;;;;;;;;5072458;28;20032;-72
2022/08/07 02:01:32;;;;;;;13.02;5.90;;;;;;;;;;5072494;28;20031;-74
2022/08/07 02:04:16;;;;;;;12.45;6.18;;;;;;;;;;5056299;28;20060;-73
2022/08/07 02:06:47;;;;;;;11.13;5.63;;;;;;;;;;5088225;28;20032;-74
2022/08/07 02:09:16;;;;;;;11.85;6.10;;;;;;;;;;5090952;28;20496;-74
2022/08/07 02:11:48;;;;;;;9.07;5.38;;;;;;;;;;5070839;28;20024;-74
2022/08/07 02:14:18;;;;;;;8.57;5.47;;;;;;;;;;5073838;28;20052;-72
2022/08/07 02:16:46;;;;;;;8.85;5.32;;;;;;;;;;5072208;28;20031;-73
2022/08/07 02:19:13;;;;;;;9.20;5.88;;;;;;;;;;5091891;28;20099;-73
2022/08/07 02:21:40;;;;;;;13.30;5.95;;;;;;;;;;5076297;28;20025;-73
2022/08/07 02:24:06;;;;;;;9.50;6.07;;;;;;;;;;5089190;28;20024;-73
2022/08/07 02:26:33;;;;;;;10.43;5.93;;;;;;;;;;5071928;28;20016;-73
2022/08/07 02:29:00;;;;;;;10.70;6.07;;;;;;;;;;5089639;28;20027;-73
2022/08/07 02:31:28;;;;;;;10.02;6.07;;;;;;;;;;5071145;28;20125;-73
2022/08/07 02:33:55;;;;;;;11.50;6.18;;;;;;;;;;5071342;28;20036;-75
2022/08/07 02:36:22;;;;;;;9.63;6.10;;;;;;;;;;5071570;28;20049;-76
2022/08/07 02:38:49;;;;;;;10.90;6.18;;;;;;;;;;5073405;28;20114;-76
2022/08/07 02:41:15;;;;;;;14.05;6.80;;;;;;;;;;5089084;28;20039;-76
2022/08/07 02:43:44;;;;;;;12.02;5.97;;;;;;;;;;5070942;28;20038;-70
2022/08/07 02:46:15;;;;;;;11.00;7.35;;;;;;;;;;5061619;28;20032;-71
2022/08/07 02:48:42;;;;;;;10.30;6.22;;;;;;;;;;5072715;28;20024;-71
2022/08/07 02:51:10;;;;;;;8.30;5.47;;;;;;;;;;5068684;28;20028;-71
2022/08/07 02:53:39;;;;;;;7.85;5.45;;;;;;;;;;5091207;28;20032;-72
2022/08/07 02:56:11;;;;;;;11.73;5.30;;;;;;;;;;5067314;28;20038;-72
2022/08/07 02:58:38;;;;;;;11.85;5.30;;;;;;;;;;5091502;28;20024;-73
2022/08/07 03:01:05;;;;;;;10.43;5.38;;;;;;;;;;5070663;28;20020;-74
2022/08/07 03:03:35;;;;;;;8.50;5.20;;;;;;;;;;5056433;28;20054;-73
2022/08/07 03:06:01;;;;;;;7.53;5.13;;;;;;;;;;5064342;28;20057;-73
2022/08/07 03:08:28;;;;;;;9.35;5.30;;;;;;;;;;5071883;28;20028;-73
2022/08/07 03:10:55;;;;;;;10.65;5.30;;;;;;;;;;5068513;28;20036;-72
2022/08/07 03:13:28;;;;;;;11.13;5.07;;;;;;;;;;5073174;28;20116;-73
2022/08/07 03:15:55;;;;;;;10.55;5.70;;;;;;;;;;5068589;28;20095;-72
2022/08/07 03:18:22;;;;;;;7.63;5.05;;;;;;;;;;5070806;28;20039;-73
2022/08/07 03:20:49;;;;;;;12.32;6.05;;;;;;;;;;5071056;28;20040;-72
2022/08/07 03:23:16;;;;;;;9.18;5.78;;;;;;;;;;5069636;28;20045;-72
2022/08/07 03:25:42;;;;;;;7.80;4.78;;;;;;;;;;5089482;28;20424;-72
2022/08/07 03:28:12;;;;;;;8.52;5.05;;;;;;;;;;5089117;28;20028;-72
2022/08/07 03:30:40;;;;;;;7.55;4.70;;;;;;;;;;5084620;28;20046;-72
2022/08/07 03:33:07;;;;;;;7.90;5.18;;;;;;;;;;5086195;28;20024;-72
2022/08/07 03:35:35;;;;;;;10.27;5.65;;;;;;;;;;5070665;28;20420;-72
2022/08/07 03:38:04;;;;;;;7.50;4.90;;;;;;;;;;5070536;28;20385;-74
2022/08/07 03:40:31;;;;;;;9.25;5.70;;;;;;;;;;5070535;28;20036;-74
2022/08/07 03:42:59;;;;;;;9.98;5.40;;;;;;;;;;5082624;28;20097;-74
2022/08/07 03:45:26;;;;;;;8.52;5.40;;;;;;;;;;5087467;28;20103;-74
2022/08/07 03:47:53;;;;;;;8.10;4.93;;;;;;;;;;5070370;28;20024;-74
2022/08/07 03:50:21;;;;;;;7.88;5.15;;;;;;;;;;5070787;28;20034;-73
2022/08/07 03:52:48;;;;;;;9.30;4.88;;;;;;;;;;5086933;28;20024;-73
2022/08/07 03:55:16;;;;;;;9.30;4.95;;;;;;;;;;5069258;28;20063;-73
2022/08/07 03:57:45;;;;;;;8.68;4.93;;;;;;;;;;5070593;28;20035;-73
2022/08/07 04:00:12;;;;;;;8.77;5.35;;;;;;;;;;5073844;28;20317;-73
2022/08/07 04:02:49;;;;;;;9.80;5.10;;;;;;;;;;5083964;28;20126;-73
2022/08/07 04:05:24;;;;;;;8.65;6.43;;;;;;;;;;5072838;28;20107;-73
2022/08/07 04:07:51;;;;;;;7.50;4.78;;;;;;;;;;5070759;28;20032;-73
2022/08/07 04:10:22;;;;;;;7.03;4.70;;;;;;;;;;5072660;28;20043;-73
2022/08/07 04:12:49;;;;;;;7.60;4.53;;;;;;;;;;5076069;28;20047;-76
2022/08/07 04:15:16;;;;;;;6.97;3.78;;;;;;;;;;5070557;28;20059;-76
2022/08/07 04:17:43;;;;;;;7.57;4.97;;;;;;;;;;5070018;28;20024;-72
2022/08/07 04:20:11;;;;;;;8.85;4.43;;;;;;;;;;5068678;28;20029;-72
2022/08/07 04:22:39;;;;;;;10.68;4.78;;;;;;;;;;5069091;28;20036;-72
2022/08/07 04:25:06;;;;;;;7.45;4.70;;;;;;;;;;5068977;28;20025;-73
2022/08/07 04:27:33;;;;;;;10.50;4.95;;;;;;;;;;5071555;28;20024;-73
2022/08/07 04:30:00;;;;;;;9.80;5.25;;;;;;;;;;5069784;28;20025;-73
2022/08/07 04:32:32;;;;;;;8.75;5.32;;;;;;;;;;5069369;28;20035;-73
2022/08/07 04:35:00;;;;;;;9.32;5.13;;;;;;;;;;5066593;28;20029;-73
2022/08/07 04:37:26;;;;;;;7.25;4.60;;;;;;;;;;5069541;28;20028;-72
2022/08/07 04:39:53;;;;;;;8.68;5.18;;;;;;;;;;5070677;28;20285;-69
2022/08/07 04:42:20;;;;;;;11.23;4.75;;;;;;;;;;5069230;28;20111;-73
2022/08/07 04:44:46;;;;;;;9.27;4.85;;;;;;;;;;5069001;28;20228;-73
2022/08/07 04:47:22;;;;;;;9.82;5.22;;;;;;;;;;5070566;28;20039;-73
2022/08/07 04:50:05;;;;;;;8.48;4.90;;;;;;;;;;5088781;28;20060;-73
2022/08/07 04:52:40;;;;;;;9.77;5.10;;;;;;;;;;5079115;28;20056;-75
2022/08/07 04:55:23;;;;;;;9.93;4.60;;;;;;;;;;5068455;28;20044;-74
2022/08/07 04:57:59;;;;;;;8.73;4.97;;;;;;;;;;5070184;28;20412;-76
2022/08/07 05:00:44;;;;;;;12.32;4.97;;;;;;;;;;5067371;28;20031;-72
2022/08/07 05:03:11;;;;;;;8.63;5.15;;;;;;;;;;5061834;28;20064;-71
2022/08/07 05:05:43;;;;;;;8.52;5.25;;;;;;;;;;5069027;28;20024;-72
2022/08/07 05:08:10;;;;;;;8.63;5.35;;;;;;;;;;5069873;28;20024;-71
2022/08/07 05:10:48;;;;;;;8.07;5.53;;;;;;;;;;5066403;28;20033;-71
2022/08/07 05:13:19;;;;;;;10.15;4.82;;;;;;;;;;5070700;28;20029;-72
2022/08/07 05:15:49;;;;;;;10.40;5.55;;;;;;;;;;5059832;28;20049;-72
2022/08/07 05:18:35;;;;;;;17.08;5.18;;;;;;;;;;5055708;28;20029;-75
2022/08/07 05:21:04;;;;;;;10.32;5.40;;;;;;;;;;5049871;28;20489;-73
2022/08/07 05:23:31;;;;;;;8.10;5.10;;;;;;;;;;5055080;28;20037;-73
2022/08/07 05:26:01;;;;;;;10.52;4.97;;;;;;;;;;5048644;28;20117;-73
2022/08/07 05:28:29;;;;;;;14.82;5.15;;;;;;;;;;5047271;28;20027;-73
2022/08/07 05:30:56;;;;;;;9.35;5.35;;;;;;;;;;5064136;28;20040;-71
2022/08/07 05:33:23;;;;;;;9.05;5.45;;;;;;;;;;5049926;28;20037;-70
2022/08/07 05:35:50;;;;;;;7.07;4.95;;;;;;;;;;5043271;28;20034;-71
2022/08/07 05:38:16;;;;;;;11.20;5.18;;;;;;;;;;5047599;28;20365;-74
2022/08/07 05:40:43;;;;;;;8.38;5.10;;;;;;;;;;5060618;28;20029;-74
2022/08/07 05:43:09;;;;;;;7.15;5.45;;;;;;;;;;5054383;28;20032;-73
2022/08/07 05:45:35;;;;;;;8.82;5.40;;;;;;;;;;5050445;28;20029;-73
2022/08/07 05:48:04;;;;;;;14.57;5.60;;;;;;;;;;5033772;28;20025;-75
2022/08/07 05:50:37;;;;;;;9.73;5.65;;;;;;;;;;5043460;28;20025;-75
2022/08/07 05:53:03;;;;;;;9.73;5.32;;;;;;;;;;5056978;28;20032;-74
2022/08/07 05:55:30;;;;;;;12.27;5.60;;;;;;;;;;5035957;28;20045;-74
2022/08/07 05:57:56;;;;;;;10.45;6.35;;;;;;;;;;5037169;28;20037;-74
2022/08/07 06:00:24;;;;;;;10.75;5.20;;;;;;;;;;5048651;28;20047;-73
2022/08/07 06:02:59;;;;;;;9.80;4.70;;;;;;;;;;5050076;28;20047;-73
2022/08/07 06:05:27;;;;;;;10.63;5.55;;;;;;;;;;5052025;28;20497;-73
2022/08/07 06:08:01;;;;;;;9.48;5.20;;;;;;;;;;5055581;28;20522;-73
2022/08/07 06:10:28;;;;;;;7.57;4.75;;;;;;;;;;5049411;28;20132;-73
2022/08/07 06:12:55;;;;;;;7.88;5.05;;;;;;;;;;5055574;28;20029;-73
2022/08/07 06:15:22;;;;;;;6.90;5.00;;;;;;;;;;5062462;28;20044;-73
2022/08/07 06:17:48;;;;;;;7.97;5.05;;;;;;;;;;5069891;28;20028;-73
2022/08/07 06:20:15;;;;;;;8.73;5.53;;;;;;;;;;5069158;28;20028;-73
2022/08/07 06:22:42;;;;;;;8.88;5.30;;;;;;;;;;5063870;28;20039;-73
2022/08/07 06:25:25;;;;;;;7.90;4.57;;;;;;;;;;5068776;28;20028;-72
2022/08/07 06:27:51;;;;;;;7.35;4.78;;;;;;;;;;5065914;28;20082;-72
2022/08/07 06:30:18;;;;;;;10.00;5.95;;;;;;;;;;5048447;28;20025;-72
2022/08/07 06:32:44;;;;;;;12.32;5.40;;;;;;;;;;5069655;28;20021;-72
2022/08/07 06:35:10;;;;;;;10.15;5.30;;;;;;;;;;5070751;28;20024;-73
2022/08/07 06:37:37;;;;;;;8.88;4.75;;;;;;;;;;5062665;28;20421;-73
2022/08/07 06:40:04;;;;;;;9.75;4.82;;;;;;;;;;5066317;28;20032;-73
2022/08/07 06:42:36;;;;;;;8.20;5.57;;;;;;;;;;5064704;28;20024;-72
2022/08/07 06:45:12;;;;;;;10.27;6.55;;;;;;;;;;5064765;28;20052;-72
2022/08/07 06:47:39;;;;;;;10.25;4.68;;;;;;;;;;5066475;28;20071;-72
2022/08/07 06:50:06;;;;;;;10.43;5.35;;;;;;;;;;5070096;28;20034;-73
2022/08/07 06:52:39;;;;;;;10.35;5.63;;;;;;;;;;5072176;28;20039;-73
2022/08/07 06:55:30;;;;;;;10.20;5.32;;;;;;;;;;5062114;28;20029;-73
2022/08/07 06:57:58;;;;;;;18.02;6.28;;;;;;;;;;5064053;28;20029;-73
2022/08/07 07:00:31;;;;;;;10.38;5.43;;;;;;;;;;5068898;28;20028;-72
2022/08/07 07:02:58;;;;;;;12.00;5.90;;;;;;;;;;5067392;28;20503;-73
2022/08/07 07:05:25;;;;;;;12.85;5.70;;;;;;;;;;5060905;28;20025;-74
2022/08/07 07:07:51;;;;;;;10.32;6.28;;;;;;;;;;5057326;28;20017;-73
2022/08/07 07:10:26;;;;;;;14.63;6.25;;;;;;;;;;5054020;28;20028;-72
2022/08/07 07:12:53;;;;;;;14.73;6.95;;;;;;;;;;5077076;28;20365;-72
2022/08/07 07:15:26;;;;;;;12.80;7.00;;;;;;;;;;5066384;28;20077;-72
2022/08/07 07:18:04;;;;;;;13.40;7.03;;;;;;;;;;5038550;28;20064;-74
2022/08/07 07:20:35;;;;;;;12.82;6.65;;;;;;;;;;5045926;28;20064;-75
2022/08/07 07:23:01;;;;;;;19.58;8.05;;;;;;;;;;5050334;28;20036;-75
2022/08/07 07:25:28;;;;;;;12.70;6.80;;;;;;;;;;5056492;28;20415;-74
2022/08/07 07:28:00;;;;;;;11.30;7.00;;;;;;;;;;5058363;28;20060;-73
2022/08/07 07:30:30;;;;;;;11.95;7.10;;;;;;;;;;5051993;28;20187;-73
2022/08/07 07:32:57;;;;;;;15.88;6.50;;;;;;;;;;5053178;28;20071;-73
2022/08/07 07:35:23;;;;;;;12.68;6.68;;;;;;;;;;5054007;28;20083;-73
2022/08/07 07:37:50;;;;;;;12.02;6.75;;;;;;;;;;5060387;28;20021;-74
2022/08/07 07:40:17;;;;;;;14.88;6.43;;;;;;;;;;5057708;28;20116;-74
2022/08/07 07:42:47;;;;;;;9.50;5.95;;;;;;;;;;5059154;28;20436;-74
2022/08/07 07:45:14;;;;;;;10.00;5.75;;;;;;;;;;5053399;28;20025;-73
2022/08/07 07:47:41;;;;;;;10.00;4.85;;;;;;;;;;5054541;28;20483;-73
2022/08/07 07:50:09;;;;;;;15.77;5.28;;;;;;;;;;5055286;28;20021;-73
2022/08/07 07:52:36;;;;;;;11.88;5.90;;;;;;;;;;5041599;28;20068;-74
2022/08/07 07:55:03;;;;;;;11.38;5.05;;;;;;;;;;5045163;28;20056;-74
2022/08/07 07:57:29;;;;;;;10.15;5.13;;;;;;;;;;5039875;28;20047;-75
2022/08/07 07:59:56;;;;;;;13.05;4.80;;;;;;;;;;5045109;28;20039;-75
2022/08/07 08:02:23;;;;;;;10.00;5.10;;;;;;;;;;5039095;28;20084;-75
2022/08/07 08:04:49;;;;;;;9.27;4.70;;;;;;;;;;5048048;28;20528;-74
2022/08/07 08:07:16;;;;;;;9.63;5.03;;;;;;;;;;5048149;28;20391;-74
2022/08/07 08:09:42;;;;;;;8.65;4.93;;;;;;;;;;5048834;28;20029;-75
2022/08/07 08:12:09;;;;;;;12.13;4.95;;;;;;;;;;5050996;28;20105;-75
2022/08/07 08:14:35;;;;;;;10.07;4.97;;;;;;;;;;5056073;28;20084;-74
2022/08/07 08:17:02;;;;;;;9.95;5.50;;;;;;;;;;5081098;28;20388;-75
2022/08/07 08:19:29;;;;;;;10.43;5.47;;;;;;;;;;5083788;28;20056;-75
2022/08/07 08:27:34;;;;;;;8.55;4.53;;;;;;;;;;5076725;28;20036;-75
2022/08/07 08:30:06;;;;;;;8.73;4.97;;;;;;;;;;5083311;28;20038;-75
2022/08/07 08:32:35;;;;;;;9.00;5.50;;;;;;;;;;5078794;28;20024;-72
2022/08/07 08:35:02;;;;;;;12.23;5.43;;;;;;;;;;5085754;28;20030;-75
2022/08/07 08:37:30;;;;;;;10.63;5.60;;;;;;;;;;5080787;28;20024;-76
2022/08/07 08:39:56;;;;;;;14.77;4.93;;;;;;;;;;5083523;28;20078;-65
2022/08/07 08:42:52;;;;;;;13.38;4.53;;;;;;;;;;5067348;28;20039;-66
2022/08/07 08:45:25;;;;;;;8.35;4.78;;;;;;;;;;5065966;28;20064;-69
2022/08/07 08:47:55;;;;;;;7.60;4.00;;;;;;;;;;5079435;28;20115;-65
2022/08/07 08:50:31;;;;;;;7.45;4.22;;;;;;;;;;5086606;28;20027;-65
2022/08/07 08:53:09;;;;;;;7.85;4.03;;;;;;;;;;5091464;28;20388;-65
2022/08/07 08:56:02;;;;;;;8.75;4.55;;;;;;;;;;5083714;28;20024;-65
2022/08/07 08:58:39;;;;;;;10.38;4.10;;;;;;;;;;5064459;28;20055;-66
2022/08/07 09:01:25;;;;;;;10.45;3.92;;;;;;;;;;5087936;28;20039;-66
2022/08/07 09:03:58;;;;;;;9.85;4.28;;;;;;;;;;5089048;28;20084;-66
2022/08/07 09:06:43;;;;;;;7.20;3.72;;;;;;;;;;5080981;28;20039;-66
2022/08/07 09:09:09;;;;;;;8.77;3.72;;;;;;;;;;5082233;28;20539;-66
2022/08/07 09:11:41;;;;;;;10.63;3.78;;;;;;;;;;5076828;28;20024;-66
2022/08/07 09:14:19;;;;;;;6.32;3.30;;;;;;;;;;5081618;28;20044;-67
2022/08/07 09:16:48;;;;;;;9.32;3.92;;;;;;;;;;5061580;28;20042;-66
2022/08/07 09:19:15;;;;;;;6.78;3.50;;;;;;;;;;5079966;28;20036;-66
2022/08/07 09:21:59;;;;;;;4.15;3.20;;;;;;;;;;5079840;28;20085;-66
2022/08/07 09:24:26;;;;;;;7.43;3.67;;;;;;;;;;5087545;28;20036;-66
2022/08/07 09:26:55;;;;;;;10.60;3.78;;;;;;;;;;5085877;28;20483;-66
2022/08/07 09:29:39;;;;;;;9.38;3.40;;;;;;;;;;5088853;28;20495;-66
2022/08/07 09:32:24;;;;;;;8.90;3.92;;;;;;;;;;5086373;28;20072;-68
2022/08/07 09:35:11;;;;;;;9.38;3.47;;;;;;;;;;5083653;28;20036;-66
2022/08/07 09:37:37;;;;;;;9.50;3.50;;;;;;;;;;5086578;28;20498;-67
2022/08/07 09:40:21;;;;;;;8.23;3.58;;;;;;;;;;5085684;28;20036;-66
2022/08/07 09:42:59;;;;;;;9.23;3.38;;;;;;;;;;5088183;28;20020;-67
2022/08/07 09:45:34;;;;;;;11.15;3.70;;;;;;;;;;5072762;28;20039;-67
2022/08/07 09:48:04;;;;;;;17.00;3.95;;;;;;;;;;5068520;28;20450;-67
2022/08/07 09:50:56;;;;;;;8.68;3.60;;;;;;;;;;5084156;28;20395;-67
2022/08/07 09:53:24;;;;;;;6.25;2.63;;;;;;;;;;5084175;28;20044;-67
2022/08/07 09:56:03;;;;;;;7.25;2.75;;;;;;;;;;5087643;28;20020;-67
2022/08/07 09:58:47;;;;;;;4.53;2.45;;;;;;;;;;5087255;28;20024;-67
2022/08/07 10:01:14;;;;;;;4.78;3.13;;;;;;;;;;5091882;28;20036;-67
2022/08/07 10:03:46;;;;;;;10.15;2.83;;;;;;;;;;5087029;28;20028;-67
2022/08/07 10:06:35;;;;;;;7.97;2.33;;;;;;;;;;5085666;28;20109;-67
2022/08/07 10:09:18;;;;;;;9.77;2.63;;;;;;;;;;5080172;28;20754;-67
2022/08/07 10:11:50;;;;;;;5.63;2.28;;;;;;;;;;5088337;28;20365;-67
2022/08/07 10:14:35;;;;;;;3.38;2.30;;;;;;;;;;5093788;28;20468;-67
2022/08/07 10:17:19;;;;;;;4.57;1.92;;;;;;;;;;5087683;28;20028;-67
2022/08/07 10:19:49;;;;;;;10.45;2.42;;;;;;;;;;5072773;28;20534;-67
2022/08/07 10:22:27;;;;;;;7.75;2.50;;;;;;;;;;5091296;28;20501;-67
2022/08/07 10:25:12;;;;;;;9.45;2.75;;;;;;;;;;5090324;28;20024;-67
2022/08/07 10:27:46;;;;;;;5.40;2.55;;;;;;;;;;5086004;28;20115;-67
2022/08/07 10:30:14;;;;;;;6.15;2.53;;;;;;;;;;5089478;28;20026;-67
2022/08/07 10:32:55;;;;;;;8.40;2.80;;;;;;;;;;5088470;28;20511;-67
2022/08/07 10:35:26;;;;;;;10.07;3.03;;;;;;;;;;5067035;28;20711;-67
2022/08/07 10:38:27;;;;;;;5.40;2.88;;;;;;;;;;5087775;28;20115;-67
2022/08/07 10:41:02;;;;;;;6.55;3.13;;;;;;;;;;5005799;28;20029;-67
2022/08/07 10:43:42;;;;;;;9.20;3.08;;;;;;;;;;5007394;28;20052;-67
2022/08/07 10:46:14;;;;;;;11.48;3.70;;;;;;;;;;5008962;28;20096;-66
2022/08/07 10:48:50;;;;;;;5.45;3.20;;;;;;;;;;5003520;28;20048;-66
2022/08/07 10:51:42;;;;;;;5.65;3.00;;;;;;;;;;5005587;28;20129;-66
2022/08/07 10:54:08;;;;;;;7.93;3.35;;;;;;;;;;4925085;29;20139;-66
2022/08/07 10:56:49;;;;;;;9.30;3.20;;;;;;;;;;4928952;29;20059;-67
2022/08/07 10:59:26;;;;;;;6.32;3.05;;;;;;;;;;4931028;29;20504;-67
2022/08/07 11:02:09;;;;;;;10.50;3.25;;;;;;;;;;4924155;29;20047;-67
2022/08/07 11:04:53;;;;;;;6.03;2.92;;;;;;;;;;4932780;29;20055;-66
2022/08/07 11:07:22;;;;;;;4.38;3.08;;;;;;;;;;4932031;29;20023;-67
2022/08/07 11:09:53;;;;;;;5.53;3.47;;;;;;;;;;4935164;29;20039;-67
2022/08/07 11:12:26;;;;;;;5.45;3.35;;;;;;;;;;4933324;29;20031;-67
2022/08/07 11:14:55;;;;;;;6.30;3.13;;;;;;;;;;4970883;28;20144;-66
2022/08/07 11:17:25;;;;;;;8.23;3.58;;;;;;;;;;5004434;28;20248;-67
2022/08/07 11:20:10;;;;;;;5.80;3.35;;;;;;;;;;5008548;28;20048;-76
2022/08/07 11:22:48;;;;;;;4.97;3.08;;;;;;;;;;5005256;28;20129;-77
2022/08/07 11:25:19;;;;;;;5.78;3.35;;;;;;;;;;5011883;28;20489;-78
2022/08/07 11:27:51;;;;;;;7.43;3.10;;;;;;;;;;5006972;28;20034;-77
2022/08/07 11:30:19;;;;;;;6.60;3.30;;;;;;;;;;5024696;28;20044;-78
2022/08/07 11:32:52;;;;;;;4.63;3.10;;;;;;;;;;5086995;28;20039;-78
2022/08/07 11:35:18;;;;;;;;;;;;;;;;;;5082357;28;20112;-77
2022/08/07 11:38:03;;;;;;;5.00;3.28;;;;;;;;;;5084882;28;20377;-78
2022/08/07 11:40:35;;;;;;;5.97;3.42;;;;;;;;;;5080475;28;20025;-78
2022/08/07 11:43:07;;;;;;;12.57;3.53;;;;;;;;;;5081721;28;20432;-78
2022/08/07 11:45:53;;;;;;;4.70;3.25;;;;;;;;;;5081476;28;20468;-78
2022/08/07 11:48:39;;;;;;;5.47;3.45;;;;;;;;;;5082917;28;20081;-78
2022/08/07 11:51:16;;;;;;;6.53;3.42;;;;;;;;;;5071063;28;20036;-78
2022/08/07 11:53:48;;;;;;;9.88;3.60;;;;;;;;;;5071939;28;20035;-77
2022/08/07 11:56:17;;;;;;;4.32;2.78;;;;;;;;;;5086071;28;20059;-78
2022/08/07 11:58:49;;;;;;;10.63;3.67;;;;;;;;;;5089164;28;20031;-78
2022/08/07 12:01:38;;;;;;;7.45;3.17;;;;;;;;;;5089056;28;20431;-77
2022/08/07 12:04:07;;;;;;;9.35;3.30;;;;;;;;;;5088869;28;20409;-77
2022/08/07 12:06:52;;;;;;;5.22;2.65;;;;;;;;;;5085055;28;20119;-77
2022/08/07 12:09:35;;;;;;;7.43;3.47;;;;;;;;;;5082127;28;20024;-77
2022/08/07 12:12:09;;;;;;;4.28;3.38;;;;;;;;;;5063567;28;20536;-78
2022/08/07 12:15:01;;;;;;;4.82;2.97;;;;;;;;;;5080055;28;20028;-78
2022/08/07 12:17:39;;;;;;;5.97;2.83;;;;;;;;;;5075928;28;20077;-78
2022/08/07 12:20:11;;;;;;;5.53;3.70;;;;;;;;;;5083729;28;20028;-79
2022/08/07 12:22:43;;;;;;;7.22;3.30;;;;;;;;;;5081737;28;20024;-78
2022/08/07 12:26:14;;;;;;;4.70;2.75;;;;;;;;;;5079082;28;20024;-78
2022/08/07 12:28:17;;;;;;;5.35;2.88;;;;;;;;;;5072060;28;20032;-78
2022/08/07 12:30:45;;;;;;;6.43;3.15;;;;;;;;;;5083914;28;20610;-78
2022/08/07 12:33:17;;;;;;;7.60;3.10;;;;;;;;;;5081446;28;20491;-78
2022/08/07 12:35:44;;;;;;;12.38;3.67;;;;;;;;;;5084646;28;20040;-78
2022/08/07 12:38:12;;;;;;;7.50;3.28;;;;;;;;;;5090469;28;20036;-78
2022/08/07 12:40:40;;;;;;;3.92;2.92;;;;;;;;;;5083642;28;20028;-78
2022/08/07 12:43:08;;;;;;;13.27;3.63;;;;;;;;;;5085787;28;20060;-78
2022/08/07 12:45:37;;;;;;;5.82;3.45;;;;;;;;;;5081692;28;20024;-79
2022/08/07 12:48:20;;;;;;;5.88;3.55;;;;;;;;;;5079833;28;20044;-78
2022/08/07 12:51:02;;;;;;;5.65;3.80;;;;;;;;;;5083600;28;20025;-78
2022/08/07 12:53:37;;;;;;;6.70;3.47;;;;;;;;;;5082239;28;20032;-78
2022/08/07 12:56:16;;;;;;;5.95;3.20;;;;;;;;;;5083115;28;20032;-76
2022/08/07 12:58:45;;;;;;;5.95;3.20;;;;;;;;;;5087191;28;20078;-77
2022/08/07 13:01:26;;;;;;;10.45;3.65;;;;;;;;;;5081775;28;20036;-76
2022/08/07 13:04:04;;;;;;;5.78;3.47;;;;;;;;;;5085573;28;20115;-77
2022/08/07 13:06:49;;;;;;;5.47;3.20;;;;;;;;;;5088203;28;20020;-77
2022/08/07 13:09:31;;;;;;;5.78;3.47;;;;;;;;;;5085807;28;20076;-77
2022/08/07 13:11:57;;;;;;;5.22;3.50;;;;;;;;;;5086336;28;20043;-77
2022/08/07 13:14:23;;;;;;;6.90;3.50;;;;;;;;;;5079752;28;20400;-76
2022/08/07 13:16:52;;;;;;;9.48;3.20;;;;;;;;;;5085972;28;20028;-77
2022/08/07 13:19:19;;;;;;;5.22;3.45;;;;;;;;;;5087611;28;20031;-77
2022/08/07 13:22:08;;;;;;;8.07;3.50;;;;;;;;;;5087750;28;20039;-77
2022/08/07 13:24:39;;;;;;;8.02;3.63;;;;;;;;;;5078411;28;20059;-77
2022/08/07 13:27:18;;;;;;;5.68;3.13;;;;;;;;;;5086054;28;20104;-77
2022/08/07 13:29:46;;;;;;;6.95;3.65;;;;;;;;;;5087291;28;20032;-77
2022/08/07 13:32:33;;;;;;;5.93;3.47;;;;;;;;;;5085134;28;20020;-77
2022/08/07 13:35:15;;;;;;;4.40;3.50;;;;;;;;;;5077184;28;20418;-77
2022/08/07 13:37:42;;;;;;;5.75;3.58;;;;;;;;;;5084759;28;20032;-77
2022/08/07 13:40:31;;;;;;;5.43;3.40;;;;;;;;;;5088302;28;20063;-77
2022/08/07 13:42:59;;;;;;;9.48;3.72;;;;;;;;;;5085651;28;20492;-77
2022/08/07 13:45:26;;;;;;;7.50;3.50;;;;;;;;;;5086285;28;20030;-77
2022/08/07 13:47:55;;;;;;;5.13;3.30;;;;;;;;;;5083403;28;20066;-77
2022/08/07 13:50:23;;;;;;;6.30;2.97;;;;;;;;;;5089350;28;20511;-77
2022/08/07 13:52:50;;;;;;;5.57;3.70;;;;;;;;;;5088258;28;20028;-77
2022/08/07 13:55:18;;;;;;;7.55;3.40;;;;;;;;;;5088275;28;20039;-77
2022/08/07 13:57:46;;;;;;;5.47;3.50;;;;;;;;;;5088238;28;20038;-77
2022/08/07 14:00:12;;;;;;;5.82;3.67;;;;;;;;;;5085715;28;20093;-77
2022/08/07 14:02:40;;;;;;;6.00;3.60;;;;;;;;;;5080605;28;20040;-77
2022/08/07 14:05:11;;;;;;;9.20;3.40;;;;;;;;;;5066269;28;20052;-77
2022/08/07 14:07:45;;;;;;;5.63;3.42;;;;;;;;;;5080869;28;20492;-78
2022/08/07 14:10:12;;;;;;;5.35;3.25;;;;;;;;;;5086243;28;20016;-77
2022/08/07 14:12:45;;;;;;;7.35;3.50;;;;;;;;;;5086781;28;20032;-77
2022/08/07 14:15:27;;;;;;;8.48;3.88;;;;;;;;;;5086768;28;20052;-77
2022/08/07 14:17:55;;;;;;;10.10;3.65;;;;;;;;;;5084547;28;20132;-77
2022/08/07 14:20:24;;;;;;;5.05;3.10;;;;;;;;;;5088392;28;20023;-77
2022/08/07 14:22:59;;;;;;;5.93;3.20;;;;;;;;;;5083099;28;20037;-77
2022/08/07 14:25:27;;;;;;;10.18;3.70;;;;;;;;;;5085219;28;20027;-77
2022/08/07 14:27:55;;;;;;;10.30;3.58;;;;;;;;;;5079673;28;20095;-76
2022/08/07 14:30:22;;;;;;;4.47;3.38;;;;;;;;;;5068585;28;20111;-75
2022/08/07 14:32:53;;;;;;;5.15;3.40;;;;;;;;;;5075863;28;20036;-76
2022/08/07 14:35:22;;;;;;;7.77;3.70;;;;;;;;;;5080630;28;20028;-76
2022/08/07 14:37:52;;;;;;;6.57;3.65;;;;;;;;;;5082246;28;20038;-76
2022/08/07 14:40:19;;;;;;;9.90;3.47;;;;;;;;;;5088064;28;20559;-76
2022/08/07 14:42:45;;;;;;;9.93;3.65;;;;;;;;;;5086869;28;20032;-76
2022/08/07 14:45:13;;;;;;;10.93;3.08;;;;;;;;;;5084612;28;20361;-75
2022/08/07 14:47:41;;;;;;;7.45;3.80;;;;;;;;;;5062962;28;20057;-75
2022/08/07 14:50:08;;;;;;;5.65;3.15;;;;;;;;;;5083774;28;20032;-76
2022/08/07 14:52:37;;;;;;;7.35;3.60;;;;;;;;;;5084039;28;20065;-76
2022/08/07 14:55:04;;;;;;;5.47;3.50;;;;;;;;;;5082323;28;20480;-76
2022/08/07 14:57:32;;;;;;;6.90;3.80;;;;;;;;;;5086117;28;20472;-76
2022/08/07 14:59:59;;;;;;;4.97;3.38;;;;;;;;;;5083612;28;20024;-76
2022/08/07 15:02:26;;;;;;;8.50;3.30;;;;;;;;;;5085296;28;20085;-76
2022/08/07 15:04:53;;;;;;;7.72;3.53;;;;;;;;;;5087023;28;20483;-76
2022/08/07 15:07:23;;;;;;;11.40;4.60;;;;;;;;;;5081906;28;20032;-77